sensor_id;sensor_type;location;lat;lon;timestamp;P1;durP1;ratioP1;P2;durP2;ratioP2
67074;SDS011;53990;50.334;18.640;2023-08-17T00:01:32;15.50;;;13.90;;
67074;SDS011;53990;50.334;18.640;2023-08-17T00:03:59;19.90;;;15.90;;
67074;SDS011;53990;50.334;18.640;2023-08-17T00:06:25;22.80;;;20.10;;
67074;SDS011;53990;50.334;18.640;2023-08-17T00:08:52;17.70;;;14.50;;
67074;SDS011;53990;50.334;18.640;2023-08-17T00:11:19;13.80;;;12.40;;
67074;SDS011;53990;50.334;18.640;2023-08-17T00:13:45;14.30;;;12.80;;
67074;SDS011;53990;50.334;18.640;2023-08-17T00:16:12;14.80;;;13.20;;
67074;SDS011;53990;50.334;18.640;2023-08-17T00:18:39;18.00;;;14.30;;
67074;SDS011;53990;50.334;18.640;2023-08-17T00:21:05;14.90;;;13.40;;
67074;SDS011;53990;50.334;18.640;2023-08-17T00:23:32;16.10;;;14.30;;
67074;SDS011;53990;50.334;18.640;2023-08-17T00:25:59;15.50;;;13.80;;
67074;SDS011;53990;50.334;18.640;2023-08-17T00:28:26;16.00;;;13.80;;
67074;SDS011;53990;50.334;18.640;2023-08-17T00:30:53;17.20;;;13.40;;
67074;SDS011;53990;50.334;18.640;2023-08-17T00:33:19;15.40;;;13.80;;
67074;SDS011;53990;50.334;18.640;2023-08-17T00:35:46;14.70;;;13.20;;
67074;SDS011;53990;50.334;18.640;2023-08-17T00:38:13;17.30;;;14.30;;
67074;SDS011;53990;50.334;18.640;2023-08-17T00:40:40;14.80;;;13.30;;
67074;SDS011;53990;50.334;18.640;2023-08-17T00:43:07;15.10;;;13.30;;
67074;SDS011;53990;50.334;18.640;2023-08-17T00:45:34;15.40;;;13.00;;
67074;SDS011;53990;50.334;18.640;2023-08-17T00:48:02;16.00;;;12.80;;
67074;SDS011;53990;50.334;18.640;2023-08-17T00:50:30;15.40;;;11.40;;
67074;SDS011;53990;50.334;18.640;2023-08-17T00:52:56;12.90;;;11.30;;
67074;SDS011;53990;50.334;18.640;2023-08-17T00:55:24;12.60;;;11.30;;
67074;SDS011;53990;50.334;18.640;2023-08-17T00:57:51;12.90;;;11.40;;
67074;SDS011;53990;50.334;18.640;2023-08-17T01:00:19;12.70;;;11.40;;
67074;SDS011;53990;50.334;18.640;2023-08-17T01:02:46;14.20;;;11.40;;
67074;SDS011;53990;50.334;18.640;2023-08-17T01:05:13;11.40;;;10.20;;
67074;SDS011;53990;50.334;18.640;2023-08-17T01:07:40;12.20;;;11.00;;
67074;SDS011;53990;50.334;18.640;2023-08-17T01:10:07;11.90;;;10.70;;
67074;SDS011;53990;50.334;18.640;2023-08-17T01:15:13;13.50;;;11.10;;
67074;SDS011;53990;50.334;18.640;2023-08-17T01:17:56;15.40;;;11.30;;
67074;SDS011;53990;50.334;18.640;2023-08-17T01:20:24;13.50;;;10.60;;
67074;SDS011;53990;50.334;18.640;2023-08-17T01:22:55;12.40;;;10.40;;
67074;SDS011;53990;50.334;18.640;2023-08-17T01:25:24;12.60;;;11.20;;
67074;SDS011;53990;50.334;18.640;2023-08-17T01:27:50;12.30;;;11.10;;
67074;SDS011;53990;50.334;18.640;2023-08-17T01:30:17;13.80;;;11.30;;
67074;SDS011;53990;50.334;18.640;2023-08-17T01:32:58;14.80;;;12.10;;
67074;SDS011;53990;50.334;18.640;2023-08-17T01:35:35;12.80;;;11.30;;
67074;SDS011;53990;50.334;18.640;2023-08-17T01:38:07;12.90;;;11.40;;
67074;SDS011;53990;50.334;18.640;2023-08-17T01:40:36;12.40;;;11.10;;
67074;SDS011;53990;50.334;18.640;2023-08-17T01:43:03;12.60;;;11.40;;
67074;SDS011;53990;50.334;18.640;2023-08-17T01:45:30;14.70;;;12.30;;
67074;SDS011;53990;50.334;18.640;2023-08-17T01:47:57;14.10;;;11.10;;
67074;SDS011;53990;50.334;18.640;2023-08-17T01:50:23;13.90;;;11.30;;
67074;SDS011;53990;50.334;18.640;2023-08-17T01:52:50;13.70;;;11.20;;
67074;SDS011;53990;50.334;18.640;2023-08-17T01:55:21;12.60;;;11.30;;
67074;SDS011;53990;50.334;18.640;2023-08-17T01:57:49;13.60;;;12.10;;
67074;SDS011;53990;50.334;18.640;2023-08-17T02:00:16;13.70;;;11.80;;
67074;SDS011;53990;50.334;18.640;2023-08-17T02:02:43;13.50;;;12.10;;
67074;SDS011;53990;50.334;18.640;2023-08-17T02:05:09;16.90;;;12.20;;
67074;SDS011;53990;50.334;18.640;2023-08-17T02:07:36;14.50;;;12.40;;
67074;SDS011;53990;50.334;18.640;2023-08-17T02:10:03;15.40;;;12.80;;
67074;SDS011;53990;50.334;18.640;2023-08-17T02:12:30;14.50;;;12.60;;
67074;SDS011;53990;50.334;18.640;2023-08-17T02:14:57;13.70;;;12.40;;
67074;SDS011;53990;50.334;18.640;2023-08-17T02:17:23;14.70;;;13.00;;
67074;SDS011;53990;50.334;18.640;2023-08-17T02:19:50;14.10;;;12.60;;
67074;SDS011;53990;50.334;18.640;2023-08-17T02:22:17;15.80;;;13.20;;
67074;SDS011;53990;50.334;18.640;2023-08-17T02:24:43;15.30;;;13.80;;
67074;SDS011;53990;50.334;18.640;2023-08-17T02:27:10;15.10;;;13.60;;
67074;SDS011;53990;50.334;18.640;2023-08-17T02:29:37;17.40;;;14.10;;
67074;SDS011;53990;50.334;18.640;2023-08-17T02:32:04;18.30;;;14.40;;
67074;SDS011;53990;50.334;18.640;2023-08-17T02:34:31;16.40;;;14.60;;
67074;SDS011;53990;50.334;18.640;2023-08-17T02:36:57;17.10;;;13.80;;
67074;SDS011;53990;50.334;18.640;2023-08-17T02:39:24;15.90;;;14.30;;
67074;SDS011;53990;50.334;18.640;2023-08-17T02:41:51;16.20;;;14.40;;
67074;SDS011;53990;50.334;18.640;2023-08-17T02:44:18;17.40;;;14.70;;
67074;SDS011;53990;50.334;18.640;2023-08-17T02:46:44;16.80;;;14.50;;
67074;SDS011;53990;50.334;18.640;2023-08-17T02:49:11;16.20;;;14.30;;
67074;SDS011;53990;50.334;18.640;2023-08-17T02:51:38;17.70;;;15.00;;
67074;SDS011;53990;50.334;18.640;2023-08-17T02:54:04;16.00;;;13.80;;
67074;SDS011;53990;50.334;18.640;2023-08-17T02:56:31;17.80;;;16.00;;
67074;SDS011;53990;50.334;18.640;2023-08-17T02:58:58;16.70;;;15.00;;
67074;SDS011;53990;50.334;18.640;2023-08-17T03:01:24;16.70;;;15.00;;
67074;SDS011;53990;50.334;18.640;2023-08-17T03:03:51;16.50;;;14.90;;
67074;SDS011;53990;50.334;18.640;2023-08-17T03:06:18;17.10;;;14.90;;
67074;SDS011;53990;50.334;18.640;2023-08-17T03:08:44;18.40;;;15.50;;
67074;SDS011;53990;50.334;18.640;2023-08-17T03:11:11;20.10;;;16.80;;
67074;SDS011;53990;50.334;18.640;2023-08-17T03:13:38;19.10;;;16.20;;
67074;SDS011;53990;50.334;18.640;2023-08-17T03:16:05;16.70;;;14.90;;
67074;SDS011;53990;50.334;18.640;2023-08-17T03:18:31;17.50;;;15.20;;
67074;SDS011;53990;50.334;18.640;2023-08-17T03:20:58;17.30;;;15.40;;
67074;SDS011;53990;50.334;18.640;2023-08-17T03:23:25;16.30;;;14.70;;
67074;SDS011;53990;50.334;18.640;2023-08-17T03:25:52;18.00;;;16.00;;
67074;SDS011;53990;50.334;18.640;2023-08-17T03:28:19;17.60;;;15.00;;
67074;SDS011;53990;50.334;18.640;2023-08-17T03:30:46;15.70;;;14.10;;
67074;SDS011;53990;50.334;18.640;2023-08-17T03:33:13;15.10;;;13.50;;
67074;SDS011;53990;50.334;18.640;2023-08-17T03:35:39;15.70;;;12.50;;
67074;SDS011;53990;50.334;18.640;2023-08-17T03:38:06;14.90;;;13.00;;
67074;SDS011;53990;50.334;18.640;2023-08-17T03:40:33;13.00;;;11.40;;
67074;SDS011;53990;50.334;18.640;2023-08-17T03:42:59;14.30;;;11.60;;
67074;SDS011;53990;50.334;18.640;2023-08-17T03:45:26;15.50;;;11.20;;
67074;SDS011;53990;50.334;18.640;2023-08-17T03:47:53;12.40;;;11.00;;
67074;SDS011;53990;50.334;18.640;2023-08-17T03:50:19;12.60;;;10.20;;
67074;SDS011;53990;50.334;18.640;2023-08-17T03:52:46;13.20;;;9.80;;
67074;SDS011;53990;50.334;18.640;2023-08-17T03:55:13;11.30;;;9.50;;
67074;SDS011;53990;50.334;18.640;2023-08-17T03:57:39;16.40;;;13.60;;
67074;SDS011;53990;50.334;18.640;2023-08-17T04:00:07;12.90;;;11.00;;
67074;SDS011;53990;50.334;18.640;2023-08-17T04:02:34;11.00;;;9.20;;
67074;SDS011;53990;50.334;18.640;2023-08-17T04:05:00;12.40;;;9.90;;
67074;SDS011;53990;50.334;18.640;2023-08-17T04:07:27;10.10;;;9.00;;
67074;SDS011;53990;50.334;18.640;2023-08-17T04:09:54;14.70;;;8.40;;
67074;SDS011;53990;50.334;18.640;2023-08-17T04:12:21;12.40;;;9.30;;
67074;SDS011;53990;50.334;18.640;2023-08-17T04:14:47;12.70;;;9.10;;
67074;SDS011;53990;50.334;18.640;2023-08-17T04:17:14;10.50;;;9.00;;
67074;SDS011;53990;50.334;18.640;2023-08-17T04:19:41;12.70;;;8.30;;
67074;SDS011;53990;50.334;18.640;2023-08-17T04:22:08;15.00;;;9.10;;
67074;SDS011;53990;50.334;18.640;2023-08-17T04:24:34;13.60;;;9.70;;
67074;SDS011;53990;50.334;18.640;2023-08-17T04:27:01;10.30;;;9.10;;
67074;SDS011;53990;50.334;18.640;2023-08-17T04:29:28;13.20;;;9.50;;
67074;SDS011;53990;50.334;18.640;2023-08-17T04:31:56;12.80;;;9.40;;
67074;SDS011;53990;50.334;18.640;2023-08-17T04:34:23;11.50;;;9.20;;
67074;SDS011;53990;50.334;18.640;2023-08-17T04:36:50;9.20;;;8.30;;
67074;SDS011;53990;50.334;18.640;2023-08-17T04:39:17;12.20;;;9.10;;
67074;SDS011;53990;50.334;18.640;2023-08-17T04:41:44;11.10;;;8.70;;
67074;SDS011;53990;50.334;18.640;2023-08-17T04:44:10;11.30;;;8.80;;
67074;SDS011;53990;50.334;18.640;2023-08-17T04:46:37;12.00;;;9.20;;
67074;SDS011;53990;50.334;18.640;2023-08-17T04:49:04;12.80;;;9.20;;
67074;SDS011;53990;50.334;18.640;2023-08-17T04:51:30;11.90;;;9.20;;
67074;SDS011;53990;50.334;18.640;2023-08-17T04:53:57;10.40;;;8.40;;
67074;SDS011;53990;50.334;18.640;2023-08-17T04:56:24;10.10;;;8.80;;
67074;SDS011;53990;50.334;18.640;2023-08-17T04:58:50;12.20;;;8.60;;
67074;SDS011;53990;50.334;18.640;2023-08-17T05:01:17;10.90;;;8.80;;
67074;SDS011;53990;50.334;18.640;2023-08-17T05:03:45;11.10;;;8.80;;
67074;SDS011;53990;50.334;18.640;2023-08-17T05:06:12;11.30;;;9.10;;
67074;SDS011;53990;50.334;18.640;2023-08-17T05:08:39;11.80;;;8.90;;
67074;SDS011;53990;50.334;18.640;2023-08-17T05:11:06;12.40;;;9.80;;
67074;SDS011;53990;50.334;18.640;2023-08-17T05:13:33;10.70;;;9.40;;
67074;SDS011;53990;50.334;18.640;2023-08-17T05:16:00;11.40;;;9.70;;
67074;SDS011;53990;50.334;18.640;2023-08-17T05:18:26;13.50;;;9.70;;
67074;SDS011;53990;50.334;18.640;2023-08-17T05:20:53;12.50;;;9.80;;
67074;SDS011;53990;50.334;18.640;2023-08-17T05:23:20;13.30;;;9.50;;
67074;SDS011;53990;50.334;18.640;2023-08-17T05:25:47;12.20;;;9.50;;
67074;SDS011;53990;50.334;18.640;2023-08-17T05:28:14;11.50;;;8.50;;
67074;SDS011;53990;50.334;18.640;2023-08-17T05:30:41;12.30;;;9.10;;
67074;SDS011;53990;50.334;18.640;2023-08-17T05:33:07;12.40;;;9.00;;
67074;SDS011;53990;50.334;18.640;2023-08-17T05:35:34;9.40;;;8.20;;
67074;SDS011;53990;50.334;18.640;2023-08-17T05:38:01;14.30;;;9.20;;
67074;SDS011;53990;50.334;18.640;2023-08-17T05:40:32;10.70;;;8.90;;
67074;SDS011;53990;50.334;18.640;2023-08-17T05:42:59;12.90;;;9.70;;
67074;SDS011;53990;50.334;18.640;2023-08-17T05:45:25;10.20;;;8.80;;
67074;SDS011;53990;50.334;18.640;2023-08-17T05:47:54;11.50;;;8.60;;
67074;SDS011;53990;50.334;18.640;2023-08-17T05:50:21;10.50;;;8.40;;
67074;SDS011;53990;50.334;18.640;2023-08-17T05:52:47;10.80;;;8.40;;
67074;SDS011;53990;50.334;18.640;2023-08-17T05:55:14;11.10;;;8.30;;
67074;SDS011;53990;50.334;18.640;2023-08-17T05:57:41;9.30;;;8.30;;
67074;SDS011;53990;50.334;18.640;2023-08-17T06:00:08;10.80;;;8.90;;
67074;SDS011;53990;50.334;18.640;2023-08-17T06:02:37;9.80;;;8.80;;
67074;SDS011;53990;50.334;18.640;2023-08-17T06:05:04;9.70;;;8.30;;
67074;SDS011;53990;50.334;18.640;2023-08-17T06:07:30;9.80;;;8.20;;
67074;SDS011;53990;50.334;18.640;2023-08-17T06:09:57;12.20;;;8.60;;
67074;SDS011;53990;50.334;18.640;2023-08-17T06:12:24;10.30;;;9.10;;
67074;SDS011;53990;50.334;18.640;2023-08-17T06:14:50;10.60;;;9.00;;
67074;SDS011;53990;50.334;18.640;2023-08-17T06:17:17;11.90;;;8.90;;
67074;SDS011;53990;50.334;18.640;2023-08-17T06:19:44;11.10;;;9.10;;
67074;SDS011;53990;50.334;18.640;2023-08-17T06:22:11;16.20;;;14.50;;
67074;SDS011;53990;50.334;18.640;2023-08-17T06:24:38;13.00;;;11.30;;
67074;SDS011;53990;50.334;18.640;2023-08-17T06:27:05;15.20;;;9.60;;
67074;SDS011;53990;50.334;18.640;2023-08-17T06:29:31;13.80;;;9.50;;
67074;SDS011;53990;50.334;18.640;2023-08-17T06:31:58;12.00;;;9.50;;
67074;SDS011;53990;50.334;18.640;2023-08-17T06:34:25;11.40;;;9.40;;
67074;SDS011;53990;50.334;18.640;2023-08-17T06:37:02;11.30;;;10.00;;
67074;SDS011;53990;50.334;18.640;2023-08-17T06:39:31;12.10;;;9.70;;
67074;SDS011;53990;50.334;18.640;2023-08-17T06:41:58;12.70;;;10.20;;
67074;SDS011;53990;50.334;18.640;2023-08-17T06:44:24;12.90;;;11.20;;
67074;SDS011;53990;50.334;18.640;2023-08-17T06:46:51;11.50;;;10.30;;
67074;SDS011;53990;50.334;18.640;2023-08-17T06:49:18;12.30;;;11.00;;
67074;SDS011;53990;50.334;18.640;2023-08-17T06:51:44;14.90;;;11.30;;
67074;SDS011;53990;50.334;18.640;2023-08-17T06:54:11;12.10;;;10.80;;
67074;SDS011;53990;50.334;18.640;2023-08-17T06:56:38;12.80;;;11.40;;
67074;SDS011;53990;50.334;18.640;2023-08-17T06:59:05;12.80;;;11.00;;
67074;SDS011;53990;50.334;18.640;2023-08-17T07:01:31;14.50;;;11.20;;
67074;SDS011;53990;50.334;18.640;2023-08-17T07:03:58;15.60;;;13.30;;
67074;SDS011;53990;50.334;18.640;2023-08-17T07:06:25;18.30;;;14.30;;
67074;SDS011;53990;50.334;18.640;2023-08-17T07:08:52;16.20;;;13.70;;
67074;SDS011;53990;50.334;18.640;2023-08-17T07:11:21;18.20;;;14.20;;
67074;SDS011;53990;50.334;18.640;2023-08-17T07:13:48;15.50;;;13.80;;
67074;SDS011;53990;50.334;18.640;2023-08-17T07:16:14;18.70;;;14.60;;
67074;SDS011;53990;50.334;18.640;2023-08-17T07:18:41;16.80;;;14.30;;
67074;SDS011;53990;50.334;18.640;2023-08-17T07:21:08;18.20;;;15.00;;
67074;SDS011;53990;50.334;18.640;2023-08-17T07:23:35;18.40;;;15.40;;
67074;SDS011;53990;50.334;18.640;2023-08-17T07:26:01;21.90;;;19.20;;
67074;SDS011;53990;50.334;18.640;2023-08-17T07:28:28;18.90;;;16.00;;
67074;SDS011;53990;50.334;18.640;2023-08-17T07:30:55;19.00;;;15.90;;
67074;SDS011;53990;50.334;18.640;2023-08-17T07:33:22;17.60;;;15.20;;
67074;SDS011;53990;50.334;18.640;2023-08-17T07:35:48;19.90;;;15.80;;
67074;SDS011;53990;50.334;18.640;2023-08-17T07:38:15;17.50;;;13.90;;
67074;SDS011;53990;50.334;18.640;2023-08-17T07:40:42;19.60;;;15.20;;
67074;SDS011;53990;50.334;18.640;2023-08-17T07:43:09;19.00;;;15.30;;
67074;SDS011;53990;50.334;18.640;2023-08-17T07:45:36;19.40;;;16.70;;
67074;SDS011;53990;50.334;18.640;2023-08-17T07:48:03;19.80;;;16.60;;
67074;SDS011;53990;50.334;18.640;2023-08-17T07:50:30;19.40;;;16.60;;
67074;SDS011;53990;50.334;18.640;2023-08-17T07:52:57;26.00;;;19.70;;
67074;SDS011;53990;50.334;18.640;2023-08-17T07:55:23;24.20;;;17.40;;
67074;SDS011;53990;50.334;18.640;2023-08-17T07:57:51;19.50;;;15.00;;
67074;SDS011;53990;50.334;18.640;2023-08-17T08:00:17;28.50;;;17.10;;
67074;SDS011;53990;50.334;18.640;2023-08-17T08:02:46;21.20;;;16.40;;
67074;SDS011;53990;50.334;18.640;2023-08-17T08:05:13;21.20;;;15.50;;
67074;SDS011;53990;50.334;18.640;2023-08-17T08:07:40;22.20;;;18.70;;
67074;SDS011;53990;50.334;18.640;2023-08-17T08:10:07;23.50;;;18.70;;
67074;SDS011;53990;50.334;18.640;2023-08-17T08:12:51;27.50;;;18.10;;
67074;SDS011;53990;50.334;18.640;2023-08-17T08:15:18;19.60;;;16.60;;
67074;SDS011;53990;50.334;18.640;2023-08-17T08:17:45;22.00;;;16.10;;
67074;SDS011;53990;50.334;18.640;2023-08-17T08:20:11;21.40;;;17.70;;
67074;SDS011;53990;50.334;18.640;2023-08-17T08:22:38;18.50;;;15.90;;
67074;SDS011;53990;50.334;18.640;2023-08-17T08:25:05;26.80;;;18.50;;
67074;SDS011;53990;50.334;18.640;2023-08-17T08:27:32;21.60;;;18.20;;
67074;SDS011;53990;50.334;18.640;2023-08-17T08:29:59;25.30;;;19.30;;
67074;SDS011;53990;50.334;18.640;2023-08-17T08:32:25;21.40;;;18.30;;
67074;SDS011;53990;50.334;18.640;2023-08-17T08:34:52;23.90;;;18.20;;
67074;SDS011;53990;50.334;18.640;2023-08-17T08:37:19;22.80;;;18.20;;
67074;SDS011;53990;50.334;18.640;2023-08-17T08:39:53;23.40;;;19.00;;
67074;SDS011;53990;50.334;18.640;2023-08-17T08:42:22;25.50;;;19.10;;
67074;SDS011;53990;50.334;18.640;2023-08-17T08:44:49;23.70;;;18.70;;
67074;SDS011;53990;50.334;18.640;2023-08-17T08:47:16;23.30;;;18.40;;
67074;SDS011;53990;50.334;18.640;2023-08-17T08:50:03;26.90;;;22.70;;
67074;SDS011;53990;50.334;18.640;2023-08-17T08:52:50;25.40;;;19.50;;
67074;SDS011;53990;50.334;18.640;2023-08-17T08:55:23;23.00;;;18.80;;
67074;SDS011;53990;50.334;18.640;2023-08-17T08:57:52;20.90;;;17.90;;
67074;SDS011;53990;50.334;18.640;2023-08-17T09:00:23;21.80;;;18.70;;
67074;SDS011;53990;50.334;18.640;2023-08-17T09:02:52;21.50;;;18.10;;
67074;SDS011;53990;50.334;18.640;2023-08-17T09:05:22;22.10;;;17.60;;
67074;SDS011;53990;50.334;18.640;2023-08-17T09:07:49;21.70;;;17.10;;
67074;SDS011;53990;50.334;18.640;2023-08-17T09:10:17;23.70;;;18.40;;
67074;SDS011;53990;50.334;18.640;2023-08-17T09:12:45;19.70;;;17.60;;
67074;SDS011;53990;50.334;18.640;2023-08-17T09:15:13;20.20;;;17.10;;
67074;SDS011;53990;50.334;18.640;2023-08-17T09:17:40;20.20;;;17.40;;
67074;SDS011;53990;50.334;18.640;2023-08-17T09:20:08;20.50;;;16.90;;
67074;SDS011;53990;50.334;18.640;2023-08-17T09:22:43;20.10;;;17.00;;
67074;SDS011;53990;50.334;18.640;2023-08-17T09:25:11;20.10;;;16.70;;
67074;SDS011;53990;50.334;18.640;2023-08-17T09:27:38;20.50;;;16.10;;
67074;SDS011;53990;50.334;18.640;2023-08-17T09:30:09;20.20;;;16.20;;
67074;SDS011;53990;50.334;18.640;2023-08-17T09:32:36;19.10;;;15.30;;
67074;SDS011;53990;50.334;18.640;2023-08-17T09:35:04;17.20;;;15.40;;
67074;SDS011;53990;50.334;18.640;2023-08-17T09:37:34;17.70;;;15.30;;
67074;SDS011;53990;50.334;18.640;2023-08-17T09:40:01;18.00;;;15.60;;
67074;SDS011;53990;50.334;18.640;2023-08-17T09:42:28;19.00;;;16.10;;
67074;SDS011;53990;50.334;18.640;2023-08-17T09:44:55;17.70;;;16.00;;
67074;SDS011;53990;50.334;18.640;2023-08-17T09:47:22;21.50;;;15.20;;
67074;SDS011;53990;50.334;18.640;2023-08-17T09:49:51;18.80;;;15.50;;
67074;SDS011;53990;50.334;18.640;2023-08-17T09:52:22;17.60;;;15.60;;
67074;SDS011;53990;50.334;18.640;2023-08-17T09:54:51;16.90;;;15.10;;
67074;SDS011;53990;50.334;18.640;2023-08-17T09:57:18;15.50;;;13.80;;
67074;SDS011;53990;50.334;18.640;2023-08-17T09:59:46;15.90;;;14.30;;
67074;SDS011;53990;50.334;18.640;2023-08-17T10:02:22;20.60;;;15.90;;
67074;SDS011;53990;50.334;18.640;2023-08-17T10:04:52;18.60;;;15.10;;
67074;SDS011;53990;50.334;18.640;2023-08-17T10:07:20;16.40;;;14.00;;
67074;SDS011;53990;50.334;18.640;2023-08-17T10:09:53;15.50;;;14.00;;
67074;SDS011;53990;50.334;18.640;2023-08-17T10:12:27;16.90;;;14.70;;
67074;SDS011;53990;50.334;18.640;2023-08-17T10:14:59;16.10;;;14.40;;
67074;SDS011;53990;50.334;18.640;2023-08-17T10:17:56;15.60;;;13.40;;
67074;SDS011;53990;50.334;18.640;2023-08-17T10:20:21;15.60;;;13.80;;
67074;SDS011;53990;50.334;18.640;2023-08-17T10:22:52;13.90;;;12.30;;
67074;SDS011;53990;50.334;18.640;2023-08-17T10:25:21;13.90;;;12.40;;
67074;SDS011;53990;50.334;18.640;2023-08-17T10:27:48;14.10;;;12.70;;
67074;SDS011;53990;50.334;18.640;2023-08-17T10:30:15;16.60;;;12.80;;
67074;SDS011;53990;50.334;18.640;2023-08-17T10:32:42;17.30;;;13.10;;
67074;SDS011;53990;50.334;18.640;2023-08-17T10:35:12;17.70;;;13.80;;
67074;SDS011;53990;50.334;18.640;2023-08-17T10:37:40;15.50;;;12.30;;
67074;SDS011;53990;50.334;18.640;2023-08-17T10:40:07;14.90;;;12.50;;
67074;SDS011;53990;50.334;18.640;2023-08-17T10:42:35;15.20;;;13.30;;
67074;SDS011;53990;50.334;18.640;2023-08-17T10:45:38;14.80;;;13.10;;
67074;SDS011;53990;50.334;18.640;2023-08-17T10:48:31;15.40;;;12.90;;
67074;SDS011;53990;50.334;18.640;2023-08-17T10:51:00;15.50;;;11.30;;
67074;SDS011;53990;50.334;18.640;2023-08-17T10:53:34;14.00;;;11.40;;
67074;SDS011;53990;50.334;18.640;2023-08-17T10:56:01;13.10;;;11.30;;
67074;SDS011;53990;50.334;18.640;2023-08-17T10:58:31;15.10;;;10.60;;
67074;SDS011;53990;50.334;18.640;2023-08-17T11:00:58;11.80;;;10.60;;
67074;SDS011;53990;50.334;18.640;2023-08-17T11:03:25;14.20;;;11.90;;
67074;SDS011;53990;50.334;18.640;2023-08-17T11:05:53;13.20;;;11.20;;
67074;SDS011;53990;50.334;18.640;2023-08-17T11:08:30;14.70;;;11.20;;
67074;SDS011;53990;50.334;18.640;2023-08-17T11:11:12;13.10;;;11.70;;
67074;SDS011;53990;50.334;18.640;2023-08-17T11:13:43;15.30;;;11.50;;
67074;SDS011;53990;50.334;18.640;2023-08-17T11:16:12;14.30;;;11.50;;
67074;SDS011;53990;50.334;18.640;2023-08-17T11:18:39;13.40;;;11.50;;
67074;SDS011;53990;50.334;18.640;2023-08-17T11:21:07;14.90;;;11.60;;
67074;SDS011;53990;50.334;18.640;2023-08-17T11:23:36;12.40;;;11.00;;
67074;SDS011;53990;50.334;18.640;2023-08-17T11:26:04;16.40;;;11.50;;
67074;SDS011;53990;50.334;18.640;2023-08-17T11:28:32;11.90;;;10.60;;
67074;SDS011;53990;50.334;18.640;2023-08-17T11:31:04;13.50;;;10.80;;
67074;SDS011;53990;50.334;18.640;2023-08-17T11:33:31;13.50;;;12.10;;
67074;SDS011;53990;50.334;18.640;2023-08-17T11:35:59;15.30;;;10.70;;
67074;SDS011;53990;50.334;18.640;2023-08-17T11:38:32;12.30;;;10.20;;
67074;SDS011;53990;50.334;18.640;2023-08-17T11:40:59;13.30;;;10.20;;
67074;SDS011;53990;50.334;18.640;2023-08-17T11:43:30;12.60;;;10.30;;
67074;SDS011;53990;50.334;18.640;2023-08-17T11:45:58;13.40;;;10.80;;
67074;SDS011;53990;50.334;18.640;2023-08-17T11:48:25;12.10;;;10.80;;
67074;SDS011;53990;50.334;18.640;2023-08-17T11:50:52;12.10;;;10.90;;
67074;SDS011;53990;50.334;18.640;2023-08-17T11:53:20;12.90;;;11.60;;
67074;SDS011;53990;50.334;18.640;2023-08-17T11:55:48;16.80;;;15.00;;
67074;SDS011;53990;50.334;18.640;2023-08-17T11:58:15;14.80;;;12.10;;
67074;SDS011;53990;50.334;18.640;2023-08-17T12:00:43;13.20;;;11.50;;
67074;SDS011;53990;50.334;18.640;2023-08-17T12:03:16;15.30;;;12.70;;
67074;SDS011;53990;50.334;18.640;2023-08-17T12:05:53;17.70;;;8.70;;
67074;SDS011;53990;50.334;18.640;2023-08-17T12:08:21;13.80;;;8.00;;
67074;SDS011;53990;50.334;18.640;2023-08-17T12:10:48;15.90;;;8.70;;
67074;SDS011;53990;50.334;18.640;2023-08-17T12:13:14;9.90;;;6.60;;
67074;SDS011;53990;50.334;18.640;2023-08-17T12:15:42;9.40;;;6.50;;
67074;SDS011;53990;50.334;18.640;2023-08-17T12:18:08;13.60;;;7.80;;
67074;SDS011;53990;50.334;18.640;2023-08-17T12:20:35;13.00;;;9.00;;
67074;SDS011;53990;50.334;18.640;2023-08-17T12:23:03;14.80;;;10.00;;
67074;SDS011;53990;50.334;18.640;2023-08-17T12:25:34;11.70;;;8.70;;
67074;SDS011;53990;50.334;18.640;2023-08-17T12:39:31;9.00;;;7.30;;
67074;SDS011;53990;50.334;18.640;2023-08-17T12:41:58;10.00;;;7.50;;
67074;SDS011;53990;50.334;18.640;2023-08-17T12:44:26;11.00;;;8.30;;
67074;SDS011;53990;50.334;18.640;2023-08-17T12:46:53;11.40;;;8.50;;
67074;SDS011;53990;50.334;18.640;2023-08-17T12:49:20;13.30;;;8.60;;
67074;SDS011;53990;50.334;18.640;2023-08-17T12:51:47;9.50;;;7.70;;
67074;SDS011;53990;50.334;18.640;2023-08-17T12:54:15;11.90;;;8.50;;
67074;SDS011;53990;50.334;18.640;2023-08-17T12:56:42;13.30;;;9.50;;
67074;SDS011;53990;50.334;18.640;2023-08-17T12:59:09;11.80;;;9.10;;
67074;SDS011;53990;50.334;18.640;2023-08-17T13:01:37;14.10;;;9.80;;
67074;SDS011;53990;50.334;18.640;2023-08-17T13:04:05;12.50;;;9.40;;
67074;SDS011;53990;50.334;18.640;2023-08-17T13:06:33;14.00;;;10.30;;
67074;SDS011;53990;50.334;18.640;2023-08-17T13:09:00;13.30;;;10.50;;
67074;SDS011;53990;50.334;18.640;2023-08-17T13:11:27;11.70;;;9.80;;
67074;SDS011;53990;50.334;18.640;2023-08-17T13:13:54;13.90;;;9.70;;
67074;SDS011;53990;50.334;18.640;2023-08-17T13:16:21;13.40;;;9.30;;
67074;SDS011;53990;50.334;18.640;2023-08-17T13:18:50;11.70;;;9.60;;
67074;SDS011;53990;50.334;18.640;2023-08-17T13:21:17;10.80;;;8.90;;
67074;SDS011;53990;50.334;18.640;2023-08-17T13:23:46;10.70;;;8.60;;
67074;SDS011;53990;50.334;18.640;2023-08-17T13:26:14;10.60;;;8.40;;
67074;SDS011;53990;50.334;18.640;2023-08-17T13:28:41;11.80;;;9.50;;
67074;SDS011;53990;50.334;18.640;2023-08-17T13:31:08;12.20;;;9.60;;
67074;SDS011;53990;50.334;18.640;2023-08-17T13:33:36;11.70;;;9.60;;
67074;SDS011;53990;50.334;18.640;2023-08-17T13:36:03;12.80;;;9.90;;
67074;SDS011;53990;50.334;18.640;2023-08-17T13:38:30;10.80;;;9.50;;
67074;SDS011;53990;50.334;18.640;2023-08-17T13:40:58;10.90;;;9.40;;
67074;SDS011;53990;50.334;18.640;2023-08-17T13:43:25;12.60;;;9.50;;
67074;SDS011;53990;50.334;18.640;2023-08-17T13:45:52;11.00;;;9.70;;
67074;SDS011;53990;50.334;18.640;2023-08-17T13:48:20;15.40;;;10.40;;
67074;SDS011;53990;50.334;18.640;2023-08-17T13:50:47;11.60;;;10.40;;
67074;SDS011;53990;50.334;18.640;2023-08-17T13:53:14;14.40;;;10.70;;
67074;SDS011;53990;50.334;18.640;2023-08-17T13:55:42;12.90;;;10.50;;
67074;SDS011;53990;50.334;18.640;2023-08-17T13:58:09;13.10;;;9.70;;
67074;SDS011;53990;50.334;18.640;2023-08-17T14:00:38;12.90;;;9.80;;
67074;SDS011;53990;50.334;18.640;2023-08-17T14:03:05;11.90;;;9.90;;
67074;SDS011;53990;50.334;18.640;2023-08-17T14:05:33;13.00;;;9.80;;
67074;SDS011;53990;50.334;18.640;2023-08-17T14:08:00;11.00;;;9.70;;
67074;SDS011;53990;50.334;18.640;2023-08-17T14:10:27;13.90;;;10.80;;
67074;SDS011;53990;50.334;18.640;2023-08-17T14:12:55;15.20;;;11.70;;
67074;SDS011;53990;50.334;18.640;2023-08-17T14:15:22;15.30;;;11.90;;
67074;SDS011;53990;50.334;18.640;2023-08-17T14:17:49;14.10;;;11.80;;
67074;SDS011;53990;50.334;18.640;2023-08-17T14:20:17;15.10;;;12.50;;
67074;SDS011;53990;50.334;18.640;2023-08-17T14:22:44;14.30;;;12.60;;
67074;SDS011;53990;50.334;18.640;2023-08-17T14:25:11;15.20;;;11.50;;
67074;SDS011;53990;50.334;18.640;2023-08-17T14:27:38;12.40;;;10.90;;
67074;SDS011;53990;50.334;18.640;2023-08-17T14:30:08;14.10;;;11.50;;
67074;SDS011;53990;50.334;18.640;2023-08-17T14:32:35;15.30;;;11.50;;